sensor_id;sensor_type;location;lat;lon;timestamp;pressure;altitude;pressure_sealevel;temperature;humidity
20860;BME280;10590;48.154;11.514;2023-02-17T00:02:11;96533.03;;;8.79;46.39
20860;BME280;10590;48.154;11.514;2023-02-17T00:07:14;96531.97;;;8.80;46.18
20860;BME280;10590;48.154;11.514;2023-02-17T00:12:17;96538.38;;;8.79;46.66
20860;BME280;10590;48.154;11.514;2023-02-17T00:17:19;96536.78;;;8.78;46.84
20860;BME280;10590;48.154;11.514;2023-02-17T00:22:20;96535.47;;;8.75;46.81
20860;BME280;10590;48.154;11.514;2023-02-17T00:27:23;96527.81;;;8.69;46.80
20860;BME280;10590;48.154;11.514;2023-02-17T00:32:25;96525.97;;;8.64;46.95
20860;BME280;10590;48.154;11.514;2023-02-17T00:37:26;96526.81;;;8.59;46.98
20860;BME280;10590;48.154;11.514;2023-02-17T00:42:29;96531.81;;;8.66;47.00
20860;BME280;10590;48.154;11.514;2023-02-17T00:47:31;96534.59;;;8.51;47.36
20860;BME280;10590;48.154;11.514;2023-02-17T00:52:33;96535.16;;;8.48;47.56
20860;BME280;10590;48.154;11.514;2023-02-17T00:57:36;96537.63;;;8.39;47.55
20860;BME280;10590;48.154;11.514;2023-02-17T01:02:38;96546.44;;;8.29;48.26
20860;BME280;10590;48.154;11.514;2023-02-17T01:07:39;96541.19;;;8.19;48.02
20860;BME280;10590;48.154;11.514;2023-02-17T01:12:43;96538.56;;;8.14;48.45
20860;BME280;10590;48.154;11.514;2023-02-17T01:17:44;96538.88;;;8.08;48.73
20860;BME280;10590;48.154;11.514;2023-02-17T01:22:46;96510.84;;;7.86;48.47
20860;BME280;10590;48.154;11.514;2023-02-17T01:27:49;96524.66;;;7.88;48.36
20860;BME280;10590;48.154;11.514;2023-02-17T01:32:51;96523.31;;;7.91;48.31
20860;BME280;10590;48.154;11.514;2023-02-17T01:37:52;96507.66;;;7.89;48.25
20860;BME280;10590;48.154;11.514;2023-02-17T01:42:55;96521.38;;;8.02;47.50
20860;BME280;10590;48.154;11.514;2023-02-17T01:47:59;96528.50;;;8.11;47.36
20860;BME280;10590;48.154;11.514;2023-02-17T01:53:02;96526.56;;;8.22;46.81
20860;BME280;10590;48.154;11.514;2023-02-17T01:58:10;96515.56;;;8.39;45.98
20860;BME280;10590;48.154;11.514;2023-02-17T02:03:14;96510.97;;;8.44;45.72
20860;BME280;10590;48.154;11.514;2023-02-17T02:08:16;96491.63;;;8.39;45.73
20860;BME280;10590;48.154;11.514;2023-02-17T02:13:19;96506.19;;;8.46;46.01
20860;BME280;10590;48.154;11.514;2023-02-17T02:18:29;96500.03;;;8.51;45.73
20860;BME280;10590;48.154;11.514;2023-02-17T02:23:49;96509.22;;;8.63;46.08
20860;BME280;10590;48.154;11.514;2023-02-17T02:29:14;96511.63;;;8.60;46.11
20860;BME280;10590;48.154;11.514;2023-02-17T02:34:29;96513.19;;;8.66;45.82
20860;BME280;10590;48.154;11.514;2023-02-17T02:39:38;96506.81;;;8.67;46.16
20860;BME280;10590;48.154;11.514;2023-02-17T02:44:41;96518.47;;;8.71;46.31
20860;BME280;10590;48.154;11.514;2023-02-17T02:49:44;96512.59;;;8.74;46.19
20860;BME280;10590;48.154;11.514;2023-02-17T02:54:51;96499.09;;;8.66;46.29
20860;BME280;10590;48.154;11.514;2023-02-17T03:00:05;96500.94;;;8.70;46.48
20860;BME280;10590;48.154;11.514;2023-02-17T03:05:15;96485.53;;;8.67;46.45
20860;BME280;10590;48.154;11.514;2023-02-17T03:10:21;96488.19;;;8.67;47.66
20860;BME280;10590;48.154;11.514;2023-02-17T03:15:25;96486.56;;;8.66;47.16
20860;BME280;10590;48.154;11.514;2023-02-17T03:20:34;96486.03;;;8.69;47.24
20860;BME280;10590;48.154;11.514;2023-02-17T03:25:39;96478.84;;;8.70;47.36
20860;BME280;10590;48.154;11.514;2023-02-17T03:30:40;96474.88;;;8.67;47.11
20860;BME280;10590;48.154;11.514;2023-02-17T03:35:44;96476.97;;;8.70;47.01
20860;BME280;10590;48.154;11.514;2023-02-17T03:40:45;96458.66;;;8.69;46.96
20860;BME280;10590;48.154;11.514;2023-02-17T03:45:47;96458.66;;;8.69;46.95
20860;BME280;10590;48.154;11.514;2023-02-17T03:50:50;96455.94;;;8.74;46.57
20860;BME280;10590;48.154;11.514;2023-02-17T03:55:52;96460.97;;;8.75;46.44
20860;BME280;10590;48.154;11.514;2023-02-17T04:00:53;96453.22;;;8.79;46.09
20860;BME280;10590;48.154;11.514;2023-02-17T04:05:56;96456.59;;;8.84;45.87
20860;BME280;10590;48.154;11.514;2023-02-17T04:11:00;96450.94;;;8.91;45.70
20860;BME280;10590;48.154;11.514;2023-02-17T04:16:03;96453.78;;;9.00;44.65
20860;BME280;10590;48.154;11.514;2023-02-17T04:21:06;96448.97;;;9.02;45.23
20860;BME280;10590;48.154;11.514;2023-02-17T04:26:08;96451.13;;;9.00;45.32
20860;BME280;10590;48.154;11.514;2023-02-17T04:31:10;96447.94;;;8.98;45.31
20860;BME280;10590;48.154;11.514;2023-02-17T04:36:13;96447.16;;;8.97;45.19
20860;BME280;10590;48.154;11.514;2023-02-17T04:41:15;96446.88;;;8.99;45.42
20860;BME280;10590;48.154;11.514;2023-02-17T04:46:17;96435.19;;;8.94;45.10
20860;BME280;10590;48.154;11.514;2023-02-17T04:51:19;96433.16;;;9.10;44.76
20860;BME280;10590;48.154;11.514;2023-02-17T04:56:21;96432.13;;;9.06;44.98
20860;BME280;10590;48.154;11.514;2023-02-17T05:01:23;96434.97;;;9.15;44.56
20860;BME280;10590;48.154;11.514;2023-02-17T05:06:26;96427.53;;;9.12;44.81
20860;BME280;10590;48.154;11.514;2023-02-17T05:11:27;96429.91;;;9.13;44.61
20860;BME280;10590;48.154;11.514;2023-02-17T05:16:30;96414.22;;;9.12;44.72
20860;BME280;10590;48.154;11.514;2023-02-17T05:21:34;96422.44;;;9.15;44.83
20860;BME280;10590;48.154;11.514;2023-02-17T05:26:35;96412.63;;;9.11;45.16
20860;BME280;10590;48.154;11.514;2023-02-17T05:31:37;96409.13;;;9.15;45.08
20860;BME280;10590;48.154;11.514;2023-02-17T05:36:40;96422.94;;;9.17;45.07
20860;BME280;10590;48.154;11.514;2023-02-17T05:41:42;96419.78;;;9.15;45.07
20860;BME280;10590;48.154;11.514;2023-02-17T05:46:43;96416.81;;;9.17;44.92
20860;BME280;10590;48.154;11.514;2023-02-17T05:51:46;96421.84;;;9.18;45.16
20860;BME280;10590;48.154;11.514;2023-02-17T05:56:48;96412.00;;;9.19;44.98
20860;BME280;10590;48.154;11.514;2023-02-17T06:01:50;96408.34;;;9.15;45.44
20860;BME280;10590;48.154;11.514;2023-02-17T06:06:53;96434.75;;;9.30;45.73
20860;BME280;10590;48.154;11.514;2023-02-17T06:11:55;96428.47;;;9.21;45.89
20860;BME280;10590;48.154;11.514;2023-02-17T06:16:56;96429.72;;;9.29;46.22
20860;BME280;10590;48.154;11.514;2023-02-17T06:22:00;96453.34;;;9.35;46.49
20860;BME280;10590;48.154;11.514;2023-02-17T06:27:02;96453.78;;;9.00;50.78
20860;BME280;10590;48.154;11.514;2023-02-17T06:32:04;96456.59;;;8.84;52.43
20860;BME280;10590;48.154;11.514;2023-02-17T06:37:07;96451.81;;;8.86;53.50
20860;BME280;10590;48.154;11.514;2023-02-17T06:42:08;96453.69;;;8.57;55.30
20860;BME280;10590;48.154;11.514;2023-02-17T06:47:10;96456.44;;;8.76;54.27
20860;BME280;10590;48.154;11.514;2023-02-17T06:52:13;96458.47;;;8.84;54.32
20860;BME280;10590;48.154;11.514;2023-02-17T06:57:15;96454.22;;;9.07;52.67
20860;BME280;10590;48.154;11.514;2023-02-17T07:02:17;96454.53;;;9.24;51.80
20860;BME280;10590;48.154;11.514;2023-02-17T07:07:20;96446.41;;;9.34;51.71
20860;BME280;10590;48.154;11.514;2023-02-17T07:12:22;96430.00;;;9.46;51.41
20860;BME280;10590;48.154;11.514;2023-02-17T07:17:23;96446.38;;;9.77;50.89
20860;BME280;10590;48.154;11.514;2023-02-17T07:22:27;96434.44;;;9.74;51.88
20860;BME280;10590;48.154;11.514;2023-02-17T07:27:34;96456.25;;;9.95;51.93
20860;BME280;10590;48.154;11.514;2023-02-17T07:32:36;96442.16;;;10.08;51.76
20860;BME280;10590;48.154;11.514;2023-02-17T07:37:41;96456.50;;;10.31;52.04
20860;BME280;10590;48.154;11.514;2023-02-17T07:42:43;96459.28;;;10.40;52.29
20860;BME280;10590;48.154;11.514;2023-02-17T07:47:46;96460.44;;;10.34;52.48
20860;BME280;10590;48.154;11.514;2023-02-17T07:52:50;96453.44;;;10.38;52.55
20860;BME280;10590;48.154;11.514;2023-02-17T07:57:52;96466.13;;;10.46;52.12
20860;BME280;10590;48.154;11.514;2023-02-17T08:02:53;96476.31;;;10.25;54.79
20860;BME280;10590;48.154;11.514;2023-02-17T08:07:56;96472.78;;;10.30;54.45
20860;BME280;10590;48.154;11.514;2023-02-17T08:13:12;96470.63;;;10.32;53.91
20860;BME280;10590;48.154;11.514;2023-02-17T08:18:19;96450.78;;;10.38;53.77
20860;BME280;10590;48.154;11.514;2023-02-17T08:23:22;96458.44;;;10.44;53.92
20860;BME280;10590;48.154;11.514;2023-02-17T08:28:24;96465.38;;;10.59;53.54
20860;BME280;10590;48.154;11.514;2023-02-17T08:33:26;96476.03;;;10.59;54.35
20860;BME280;10590;48.154;11.514;2023-02-17T08:38:29;96464.00;;;10.75;53.82
20860;BME280;10590;48.154;11.514;2023-02-17T08:43:30;96479.13;;;10.66;54.34
20860;BME280;10590;48.154;11.514;2023-02-17T08:48:32;96482.19;;;10.73;54.00
20860;BME280;10590;48.154;11.514;2023-02-17T08:53:35;96473.41;;;10.73;54.17
20860;BME280;10590;48.154;11.514;2023-02-17T08:58:36;96477.22;;;10.53;56.33
20860;BME280;10590;48.154;11.514;2023-02-17T09:03:39;96504.03;;;10.62;55.31
20860;BME280;10590;48.154;11.514;2023-02-17T09:08:42;96500.41;;;10.01;62.06
20860;BME280;10590;48.154;11.514;2023-02-17T09:13:44;96506.03;;;9.81;62.15
20860;BME280;10590;48.154;11.514;2023-02-17T09:18:46;96510.22;;;9.87;62.33
20860;BME280;10590;48.154;11.514;2023-02-17T09:23:50;96507.41;;;9.97;61.54
20860;BME280;10590;48.154;11.514;2023-02-17T09:28:52;96505.88;;;10.29;60.04
20860;BME280;10590;48.154;11.514;2023-02-17T09:34:04;96486.41;;;10.47;58.62
20860;BME280;10590;48.154;11.514;2023-02-17T09:39:11;96484.34;;;10.58;57.96
20860;BME280;10590;48.154;11.514;2023-02-17T09:44:18;96497.91;;;10.75;57.28
20860;BME280;10590;48.154;11.514;2023-02-17T09:49:25;96491.50;;;10.90;56.91
20860;BME280;10590;48.154;11.514;2023-02-17T09:54:33;96512.50;;;11.24;55.54
20860;BME280;10590;48.154;11.514;2023-02-17T09:59:42;96519.94;;;11.54;54.88
20860;BME280;10590;48.154;11.514;2023-02-17T10:04:47;96509.66;;;11.47;55.15
20860;BME280;10590;48.154;11.514;2023-02-17T10:10:02;96513.97;;;11.85;54.74
20860;BME280;10590;48.154;11.514;2023-02-17T10:15:08;96514.97;;;12.47;52.27
20860;BME280;10590;48.154;11.514;2023-02-17T10:20:13;96487.56;;;12.05;52.63
20860;BME280;10590;48.154;11.514;2023-02-17T10:25:19;96503.22;;;11.98;53.08
20860;BME280;10590;48.154;11.514;2023-02-17T10:30:30;96494.50;;;12.51;52.07
20860;BME280;10590;48.154;11.514;2023-02-17T10:35:47;96493.25;;;12.26;52.26
20860;BME280;10590;48.154;11.514;2023-02-17T10:40:53;96490.84;;;13.00;50.28
20860;BME280;10590;48.154;11.514;2023-02-17T10:45:56;96491.88;;;12.91;49.57
20860;BME280;10590;48.154;11.514;2023-02-17T10:50:59;96478.34;;;14.01;47.31
20860;BME280;10590;48.154;11.514;2023-02-17T10:56:07;96473.91;;;14.48;45.57
20860;BME280;10590;48.154;11.514;2023-02-17T11:01:11;96478.00;;;13.85;46.61
20860;BME280;10590;48.154;11.514;2023-02-17T11:06:16;96478.50;;;14.13;46.56
20860;BME280;10590;48.154;11.514;2023-02-17T11:11:21;96461.34;;;13.23;47.66
20860;BME280;10590;48.154;11.514;2023-02-17T11:16:26;96476.53;;;13.53;47.35
20860;BME280;10590;48.154;11.514;2023-02-17T11:21:28;96459.63;;;13.35;47.86
20860;BME280;10590;48.154;11.514;2023-02-17T11:26:35;96456.81;;;13.49;47.47
20860;BME280;10590;48.154;11.514;2023-02-17T11:31:37;96452.78;;;14.03;47.26
20860;BME280;10590;48.154;11.514;2023-02-17T11:36:39;96447.41;;;14.12;46.48
20860;BME280;10590;48.154;11.514;2023-02-17T11:41:44;96433.66;;;13.62;47.19
20860;BME280;10590;48.154;11.514;2023-02-17T11:46:54;96429.69;;;13.42;48.20
20860;BME280;10590;48.154;11.514;2023-02-17T11:52:09;96412.66;;;13.47;48.53
20860;BME280;10590;48.154;11.514;2023-02-17T11:57:30;96415.81;;;13.66;48.25
20860;BME280;10590;48.154;11.514;2023-02-17T12:02:45;96418.47;;;13.31;49.30
20860;BME280;10590;48.154;11.514;2023-02-17T12:08:03;96385.38;;;13.36;49.14
20860;BME280;10590;48.154;11.514;2023-02-17T12:13:20;96402.91;;;14.02;47.73
20860;BME280;10590;48.154;11.514;2023-02-17T12:18:39;96412.34;;;14.26;47.47
20860;BME280;10590;48.154;11.514;2023-02-17T12:29:23;96396.63;;;13.07;50.63
20860;BME280;10590;48.154;11.514;2023-02-17T12:34:31;96398.16;;;12.99;51.32
20860;BME280;10590;48.154;11.514;2023-02-17T12:39:40;96400.88;;;13.08;51.34
20860;BME280;10590;48.154;11.514;2023-02-17T12:44:47;96394.44;;;13.09;50.97
20860;BME280;10590;48.154;11.514;2023-02-17T12:49:54;96408.94;;;13.08;51.22
20860;BME280;10590;48.154;11.514;2023-02-17T12:55:02;96406.31;;;13.17;51.12
20860;BME280;10590;48.154;11.514;2023-02-17T13:00:16;96409.16;;;12.89;51.64
20860;BME280;10590;48.154;11.514;2023-02-17T13:05:25;96404.75;;;12.93;51.62
20860;BME280;10590;48.154;11.514;2023-02-17T13:10:32;96404.50;;;13.03;51.43
20860;BME280;10590;48.154;11.514;2023-02-17T13:15:39;96399.22;;;12.90;52.12
20860;BME280;10590;48.154;11.514;2023-02-17T13:20:52;96406.94;;;12.83;52.74
20860;BME280;10590;48.154;11.514;2023-02-17T13:26:10;96398.22;;;12.68;53.68
20860;BME280;10590;48.154;11.514;2023-02-17T13:31:19;96411.25;;;12.61;54.50
20860;BME280;10590;48.154;11.514;2023-02-17T13:36:34;96398.28;;;12.46;54.93
20860;BME280;10590;48.154;11.514;2023-02-17T13:41:44;96411.22;;;12.53;54.89
20860;BME280;10590;48.154;11.514;2023-02-17T13:46:48;96392.78;;;12.51;55.36
20860;BME280;10590;48.154;11.514;2023-02-17T13:51:50;96408.16;;;12.37;55.68
20860;BME280;10590;48.154;11.514;2023-02-17T13:56:53;96409.56;;;12.34;55.74
20860;BME280;10590;48.154;11.514;2023-02-17T14:01:56;96394.69;;;12.51;55.68
20860;BME280;10590;48.154;11.514;2023-02-17T14:06:59;96390.72;;;12.48;55.69
20860;BME280;10590;48.154;11.514;2023-02-17T14:12:12;96407.53;;;12.40;55.64
20860;BME280;10590;48.154;11.514;2023-02-17T14:17:30;96403.94;;;12.44;55.46
20860;BME280;10590;48.154;11.514;2023-02-17T14:22:33;96403.88;;;12.36;56.13
20860;BME280;10590;48.154;11.514;2023-02-17T14:27:40;96415.09;;;12.38;55.53
20860;BME280;10590;48.154;11.514;2023-02-17T14:32:44;96402.66;;;12.42;55.85
20860;BME280;10590;48.154;11.514;2023-02-17T14:37:48;96419.03;;;12.40;55.84
20860;BME280;10590;48.154;11.514;2023-02-17T14:42:50;96413.97;;;12.39;55.72
20860;BME280;10590;48.154;11.514;2023-02-17T14:47:53;96412.88;;;12.40;55.51
20860;BME280;10590;48.154;11.514;2023-02-17T14:52:56;96422.16;;;12.34;55.25
20860;BME280;10590;48.154;11.514;2023-02-17T14:57:58;96413.44;;;12.28;55.91
20860;BME280;10590;48.154;11.514;2023-02-17T15:03:01;96413.88;;;12.22;55.74
20860;BME280;10590;48.154;11.514;2023-02-17T15:08:03;96416.06;;;12.20;55.94
20860;BME280;10590;48.154;11.514;2023-02-17T15:13:05;96416.06;;;12.20;55.72
20860;BME280;10590;48.154;11.514;2023-02-17T15:18:09;96426.50;;;12.07;56.85
20860;BME280;10590;48.154;11.514;2023-02-17T15:23:12;96426.44;;;11.99;57.68
20860;BME280;10590;48.154;11.514;2023-02-17T15:28:15;96417.81;;;12.02;57.54
20860;BME280;10590;48.154;11.514;2023-02-17T15:33:19;96410.41;;;11.99;57.37
20860;BME280;10590;48.154;11.514;2023-02-17T15:38:22;96397.41;;;12.06;56.49
20860;BME280;10590;48.154;11.514;2023-02-17T15:43:30;96393.63;;;12.07;57.07
20860;BME280;10590;48.154;11.514;2023-02-17T15:48:35;96382.56;;;11.77;59.87
20860;BME280;10590;48.154;11.514;2023-02-17T15:53:36;96383.72;;;11.85;59.12
20860;BME280;10590;48.154;11.514;2023-02-17T15:58:38;96386.28;;;11.90;58.70
20860;BME280;10590;48.154;11.514;2023-02-17T16:03:42;96393.25;;;11.77;58.90
20860;BME280;10590;48.154;11.514;2023-02-17T16:08:43;96392.56;;;11.72;59.41
20860;BME280;10590;48.154;11.514;2023-02-17T16:13:46;96405.69;;;11.60;60.24
20860;BME280;10590;48.154;11.514;2023-02-17T16:18:50;96405.69;;;11.60;59.88
20860;BME280;10590;48.154;11.514;2023-02-17T16:23:53;96395.28;;;11.58;60.13
20860;BME280;10590;48.154;11.514;2023-02-17T16:28:59;96399.97;;;11.53;60.21
20860;BME280;10590;48.154;11.514;2023-02-17T16:34:02;96398.59;;;11.41;60.42
20860;BME280;10590;48.154;11.514;2023-02-17T16:39:11;96411.59;;;11.34;60.69
20860;BME280;10590;48.154;11.514;2023-02-17T16:44:13;96420.28;;;11.26;60.90
20860;BME280;10590;48.154;11.514;2023-02-17T16:49:18;96429.59;;;11.15;61.60
20860;BME280;10590;48.154;11.514;2023-02-17T16:54:21;96416.25;;;11.15;61.43
20860;BME280;10590;48.154;11.514;2023-02-17T16:59:24;96421.00;;;11.04;61.81
20860;BME280;10590;48.154;11.514;2023-02-17T17:04:27;96416.25;;;11.01;62.03
20860;BME280;10590;48.154;11.514;2023-02-17T17:09:29;96437.63;;;11.01;61.83
20860;BME280;10590;48.154;11.514;2023-02-17T17:14:30;96427.22;;;11.00;61.86
20860;BME280;10590;48.154;11.514;2023-02-17T17:19:33;96426.34;;;10.91;62.23
20860;BME280;10590;48.154;11.514;2023-02-17T17:24:35;96432.56;;;10.86;61.92
20860;BME280;10590;48.154;11.514;2023-02-17T17:29:39;96426.03;;;10.78;61.95
20860;BME280;10590;48.154;11.514;2023-02-17T17:34:42;96428.41;;;10.80;61.85
20860;BME280;10590;48.154;11.514;2023-02-17T17:39:44;96448.28;;;10.74;61.93
20860;BME280;10590;48.154;11.514;2023-02-17T17:44:46;96429.91;;;10.72;61.63
20860;BME280;10590;48.154;11.514;2023-02-17T17:49:49;96437.31;;;10.75;61.32
20860;BME280;10590;48.154;11.514;2023-02-17T17:54:51;96438.91;;;10.76;61.20
20860;BME280;10590;48.154;11.514;2023-02-17T17:59:52;96417.94;;;10.70;61.23
20860;BME280;10590;48.154;11.514;2023-02-17T18:04:55;96420.41;;;10.66;61.74
20860;BME280;10590;48.154;11.514;2023-02-17T18:09:57;96413.47;;;10.65;61.67
20860;BME280;10590;48.154;11.514;2023-02-17T18:15:00;96416.75;;;10.62;61.94
20860;BME280;10590;48.154;11.514;2023-02-17T18:20:06;96418.81;;;10.65;62.07
20860;BME280;10590;48.154;11.514;2023-02-17T18:25:09;96383.63;;;10.63;61.94
20860;BME280;10590;48.154;11.514;2023-02-17T18:30:13;96423.38;;;10.78;61.57
20860;BME280;10590;48.154;11.514;2023-02-17T18:35:16;96425.56;;;10.76;61.96
20860;BME280;10590;48.154;11.514;2023-02-17T18:40:21;96418.81;;;10.65;62.11
20860;BME280;10590;48.154;11.514;2023-02-17T18:45:22;96425.34;;;10.73;61.98
20860;BME280;10590;48.154;11.514;2023-02-17T18:50:29;96404.97;;;10.77;62.13
20860;BME280;10590;48.154;11.514;2023-02-17T18:55:35;96417.75;;;10.66;62.47
20860;BME280;10590;48.154;11.514;2023-02-17T19:00:37;96423.47;;;10.73;62.51
20860;BME280;10590;48.154;11.514;2023-02-17T19:05:42;96424.97;;;10.79;62.04
20860;BME280;10590;48.154;11.514;2023-02-17T19:10:44;96421.41;;;10.84;62.07
20860;BME280;10590;48.154;11.514;2023-02-17T19:15:45;96422.28;;;10.79;62.24
20860;BME280;10590;48.154;11.514;2023-02-17T19:20:49;96431.47;;;10.87;62.24
20860;BME280;10590;48.154;11.514;2023-02-17T19:25:51;96428.72;;;10.92;62.26
20860;BME280;10590;48.154;11.514;2023-02-17T19:30:54;96424.38;;;10.96;62.17
20860;BME280;10590;48.154;11.514;2023-02-17T19:35:58;96415.38;;;10.92;62.42
20860;BME280;10590;48.154;11.514;2023-02-17T19:41:01;96414.97;;;10.99;62.45
20860;BME280;10590;48.154;11.514;2023-02-17T19:46:03;96417.25;;;11.05;62.43
20860;BME280;10590;48.154;11.514;2023-02-17T19:51:07;96424.56;;;11.00;62.73
20860;BME280;10590;48.154;11.514;2023-02-17T19:56:13;96419.81;;;10.97;62.87
20860;BME280;10590;48.154;11.514;2023-02-17T20:01:17;96436.81;;;11.01;62.73
20860;BME280;10590;48.154;11.514;2023-02-17T20:06:22;96440.09;;;10.98;63.23
20860;BME280;10590;48.154;11.514;2023-02-17T20:11:25;96437.50;;;10.93;63.13
20860;BME280;10590;48.154;11.514;2023-02-17T20:16:27;96443.06;;;10.96;63.61
20860;BME280;10590;48.154;11.514;2023-02-17T20:21:34;96439.78;;;10.85;63.69
20860;BME280;10590;48.154;11.514;2023-02-17T20:26:39;96454.22;;;10.84;63.94
20860;BME280;10590;48.154;11.514;2023-02-17T20:31:42;96456.38;;;10.69;64.25
20860;BME280;10590;48.154;11.514;2023-02-17T20:36:45;96495.75;;;10.91;63.80
20860;BME280;10590;48.154;11.514;2023-02-17T20:41:52;96503.19;;;10.94;63.70
20860;BME280;10590;48.154;11.514;2023-02-17T20:46:56;96487.16;;;10.94;63.42
20860;BME280;10590;48.154;11.514;2023-02-17T20:51:59;96511.81;;;11.04;63.25
20860;BME280;10590;48.154;11.514;2023-02-17T20:57:11;96522.09;;;11.11;63.42
20860;BME280;10590;48.154;11.514;2023-02-17T21:02:14;96514.75;;;11.03;63.40
20860;BME280;10590;48.154;11.514;2023-02-17T21:07:18;96506.84;;;10.98;63.53
20860;BME280;10590;48.154;11.514;2023-02-17T21:12:22;96517.72;;;11.01;63.64
20860;BME280;10590;48.154;11.514;2023-02-17T21:17:26;96514.66;;;11.08;63.06
20860;BME280;10590;48.154;11.514;2023-02-17T21:22:29;96511.00;;;11.17;63.01
20860;BME280;10590;48.154;11.514;2023-02-17T21:27:35;96506.28;;;11.28;63.10
20860;BME280;10590;48.154;11.514;2023-02-17T21:32:42;96501.31;;;11.22;63.26
20860;BME280;10590;48.154;11.514;2023-02-17T21:37:45;96495.88;;;11.27;63.07
20860;BME280;10590;48.154;11.514;2023-02-17T21:42:46;96506.97;;;11.34;63.11
20860;BME280;10590;48.154;11.514;2023-02-17T21:48:06;96503.03;;;11.31;63.13
20860;BME280;10590;48.154;11.514;2023-02-17T21:53:09;96513.00;;;11.39;62.76
20860;BME280;10590;48.154;11.514;2023-02-17T21:58:14;96530.94;;;11.39;63.14
20860;BME280;10590;48.154;11.514;2023-02-17T22:03:16;96516.19;;;11.41;63.15
20860;BME280;10590;48.154;11.514;2023-02-17T22:08:20;96510.44;;;11.34;63.47
20860;BME280;10590;48.154;11.514;2023-02-17T22:13:23;96502.44;;;11.34;63.67
20860;BME280;10590;48.154;11.514;2023-02-17T22:18:27;96501.94;;;11.32;63.88
20860;BME280;10590;48.154;11.514;2023-02-17T22:23:30;96515.38;;;11.41;63.96
20860;BME280;10590;48.154;11.514;2023-02-17T22:28:41;96528.56;;;11.37;64.28
20860;BME280;10590;48.154;11.514;2023-02-17T22:33:43;96537.97;;;11.35;64.50
20860;BME280;10590;48.154;11.514;2023-02-17T22:38:47;96520.94;;;11.31;64.76
20860;BME280;10590;48.154;11.514;2023-02-17T22:43:50;96524.47;;;11.26;64.98
20860;BME280;10590;48.154;11.514;2023-02-17T22:48:55;96519.91;;;11.13;65.45
20860;BME280;10590;48.154;11.514;2023-02-17T22:54:04;96536.03;;;11.22;65.38
20860;BME280;10590;48.154;11.514;2023-02-17T22:59:06;96532.19;;;11.14;65.27
20860;BME280;10590;48.154;11.514;2023-02-17T23:04:13;96533.47;;;11.16;65.19
20860;BME280;10590;48.154;11.514;2023-02-17T23:09:17;96531.00;;;11.06;65.28
20860;BME280;10590;48.154;11.514;2023-02-17T23:14:22;96525.75;;;11.01;65.19
20860;BME280;10590;48.154;11.514;2023-02-17T23:19:26;96529.78;;;10.99;65.32
20860;BME280;10590;48.154;11.514;2023-02-17T23:24:30;96544.22;;;10.98;65.78
20860;BME280;10590;48.154;11.514;2023-02-17T23:29:32;96544.81;;;10.95;66.15
20860;BME280;10590;48.154;11.514;2023-02-17T23:34:34;96553.41;;;10.92;66.69
20860;BME280;10590;48.154;11.514;2023-02-17T23:39:37;96560.94;;;10.90;66.60
20860;BME280;10590;48.154;11.514;2023-02-17T23:44:38;96540.84;;;10.78;67.24
20860;BME280;10590;48.154;11.514;2023-02-17T23:49:40;96562.09;;;10.83;67.40
20860;BME280;10590;48.154;11.514;2023-02-17T23:54:44;96547.94;;;10.69;68.12
20860;BME280;10590;48.154;11.514;2023-02-17T23:59:45;96546.25;;;10.73;67.98
